createdAt,value
2024-01-20T00:02:04.893Z,69.45
2024-01-20T00:04:34.389Z,69.16
2024-01-20T00:07:05.321Z,69.32
2024-01-20T00:09:39.031Z,69.44
2024-01-20T00:12:21.777Z,69.46
2024-01-20T00:14:51.672Z,69.57
2024-01-20T00:17:25.808Z,69.23
2024-01-20T00:19:59.481Z,69.35
2024-01-20T00:22:29.198Z,69.34
2024-01-20T00:25:02.424Z,69.32
2024-01-20T00:27:32.255Z,69.45
2024-01-20T00:30:04.476Z,69.42
2024-01-20T00:32:34.767Z,69.36
2024-01-20T00:35:08.210Z,69.57
2024-01-20T00:37:39.731Z,69.37
2024-01-20T00:40:11.726Z,69.28
2024-01-20T00:42:41.419Z,69.41
2024-01-20T00:45:13.048Z,69.26
2024-01-20T00:47:42.556Z,69.21
2024-01-20T00:50:13.267Z,69.23
2024-01-20T00:52:42.733Z,68.95
2024-01-20T00:55:13.658Z,68.97
2024-01-20T00:57:43.261Z,68.98
2024-01-20T01:00:15.021Z,69.10
2024-01-20T01:02:44.416Z,69.08
2024-01-20T01:05:15.089Z,69.23
2024-01-20T01:07:44.388Z,69.38
2024-01-20T01:10:15.093Z,69.51
2024-01-20T01:12:44.380Z,69.57
2024-01-20T01:15:15.436Z,69.85
2024-01-20T01:17:44.755Z,69.78
2024-01-20T01:20:15.742Z,69.98
2024-01-20T01:22:45.211Z,69.78
2024-01-20T01:25:15.901Z,70.16
2024-01-20T01:27:45.202Z,70.30
2024-01-20T01:30:16.077Z,70.20
2024-01-20T01:32:45.456Z,70.60
2024-01-20T01:35:16.180Z,70.71
2024-01-20T01:37:46.092Z,70.53
2024-01-20T01:40:16.617Z,71.06
2024-01-20T01:42:46.118Z,71.09
2024-01-20T01:45:16.949Z,71.17
2024-01-20T01:47:46.512Z,71.01
2024-01-20T01:50:17.014Z,71.18
2024-01-20T01:52:49.050Z,71.22
2024-01-20T01:55:19.791Z,71.20
2024-01-20T01:57:49.597Z,71.18
2024-01-20T02:00:20.251Z,71.46
2024-01-20T02:02:50.035Z,72.03
2024-01-20T02:05:20.668Z,71.37
2024-01-20T02:07:50.684Z,71.46
2024-01-20T02:10:22.574Z,71.85
2024-01-20T02:12:51.938Z,71.45
2024-01-20T02:15:22.796Z,71.47
2024-01-20T02:17:55.456Z,71.53
2024-01-20T02:20:26.184Z,71.58
2024-01-20T02:22:55.691Z,71.40
2024-01-20T02:25:26.417Z,71.27
2024-01-20T02:27:55.790Z,71.59
2024-01-20T02:30:26.822Z,71.49
2024-01-20T02:32:56.462Z,71.40
2024-01-20T02:35:27.003Z,71.53
2024-01-20T02:37:56.613Z,71.63
2024-01-20T02:40:28.258Z,71.58
2024-01-20T02:42:57.659Z,72.15
2024-01-20T02:45:28.451Z,71.92
2024-01-20T02:47:59.447Z,72.03
2024-01-20T02:50:30.373Z,72.04
2024-01-20T02:53:00.196Z,72.24
2024-01-20T02:55:30.812Z,71.89
2024-01-20T02:58:00.521Z,72.03
2024-01-20T03:00:31.122Z,72.01
2024-01-20T03:03:00.568Z,71.66
2024-01-20T03:05:31.132Z,71.85
2024-01-20T03:08:00.606Z,71.81
2024-01-20T03:10:31.321Z,71.72
2024-01-20T03:13:00.733Z,71.91
2024-01-20T03:15:31.410Z,71.84
2024-01-20T03:18:01.026Z,71.47
2024-01-20T03:20:31.714Z,71.73
2024-01-20T03:23:02.615Z,71.63
2024-01-20T03:25:33.387Z,71.48
2024-01-20T03:28:02.807Z,71.46
2024-01-20T03:30:33.557Z,71.51
2024-01-20T03:33:03.214Z,71.59
2024-01-20T03:35:33.958Z,71.43
2024-01-20T03:38:03.255Z,71.49
2024-01-20T03:40:34.292Z,71.73
2024-01-20T03:43:03.894Z,71.60
2024-01-20T03:45:34.764Z,71.56
2024-01-20T03:48:04.827Z,71.91
2024-01-20T03:50:36.134Z,71.51
2024-01-20T03:53:07.150Z,71.92
2024-01-20T03:55:37.910Z,71.90
2024-01-20T03:58:07.276Z,71.90
2024-01-20T04:00:37.909Z,71.56
2024-01-20T04:03:07.476Z,71.75
2024-01-20T04:05:41.149Z,71.75
2024-01-20T04:08:10.712Z,71.88
2024-01-20T04:10:41.936Z,71.84
2024-01-20T04:13:11.962Z,71.62
2024-01-20T04:15:42.739Z,71.76
2024-01-20T04:18:12.536Z,71.58
2024-01-20T04:20:44.376Z,71.66
2024-01-20T04:23:13.905Z,71.53
2024-01-20T04:25:44.519Z,71.67
2024-01-20T04:28:13.998Z,71.75
2024-01-20T04:30:44.831Z,71.67
2024-01-20T04:33:14.454Z,71.61
2024-01-20T04:35:45.203Z,71.81
2024-01-20T04:38:14.610Z,71.83
2024-01-20T04:40:45.337Z,72.10
2024-01-20T04:43:14.635Z,71.99
2024-01-20T04:45:45.925Z,72.04
2024-01-20T04:48:15.510Z,72.01
2024-01-20T04:50:46.315Z,72.01
2024-01-20T04:53:15.623Z,71.67
2024-01-20T04:55:46.263Z,71.77
2024-01-20T04:58:15.654Z,72.07
2024-01-20T05:00:46.656Z,72.02
2024-01-20T05:03:16.267Z,72.11
2024-01-20T05:05:47.069Z,72.31
2024-01-20T05:08:17.054Z,72.48
2024-01-20T05:10:47.579Z,72.41
2024-01-20T05:13:16.977Z,72.27
2024-01-20T05:15:47.713Z,72.19
2024-01-20T05:18:17.466Z,72.06
2024-01-20T05:20:48.159Z,72.05
2024-01-20T05:23:17.454Z,72.15
2024-01-20T05:25:48.492Z,72.07
2024-01-20T05:28:17.803Z,72.09
2024-01-20T05:30:48.512Z,71.97
2024-01-20T05:33:18.085Z,71.64
2024-01-20T05:35:48.877Z,71.76
2024-01-20T05:38:18.266Z,71.58
2024-01-20T05:40:48.906Z,71.44
2024-01-20T05:43:18.207Z,71.39
2024-01-20T05:45:48.828Z,71.33
2024-01-20T05:48:18.468Z,71.32
2024-01-20T05:50:49.602Z,71.20
2024-01-20T05:53:19.666Z,70.90
2024-01-20T05:55:51.218Z,71.07
2024-01-20T05:58:20.457Z,71.16
2024-01-20T06:00:51.363Z,71.20
2024-01-20T06:03:20.940Z,71.16
2024-01-20T06:05:51.921Z,71.21
2024-01-20T06:08:21.251Z,71.10
2024-01-20T06:10:52.896Z,70.82
2024-01-20T06:13:22.408Z,70.97
2024-01-20T06:15:53.338Z,70.95
2024-01-20T06:18:22.903Z,70.96
2024-01-20T06:20:53.700Z,71.02
2024-01-20T06:23:23.089Z,71.07
2024-01-20T06:25:55.002Z,71.12
2024-01-20T06:28:25.990Z,71.30
2024-01-20T06:30:57.653Z,71.23
2024-01-20T06:33:27.166Z,71.39
2024-01-20T06:35:57.900Z,71.42
2024-01-20T06:38:29.841Z,71.47
2024-01-20T06:41:00.456Z,70.98
2024-01-20T06:43:29.875Z,70.98
2024-01-20T06:46:01.654Z,70.82
2024-01-20T06:48:34.299Z,70.52
2024-01-20T06:51:05.586Z,70.54
2024-01-20T06:53:35.046Z,70.05
2024-01-20T06:56:06.188Z,69.90
2024-01-20T06:58:36.104Z,69.79
2024-01-20T07:01:07.318Z,69.56
2024-01-20T07:03:36.756Z,69.47
2024-01-20T07:06:09.104Z,69.18
2024-01-20T07:08:38.624Z,68.86
2024-01-20T07:11:12.440Z,68.61
2024-01-20T07:13:41.830Z,68.34
2024-01-20T07:16:13.290Z,68.61
2024-01-20T07:18:43.860Z,68.68
2024-01-20T07:21:15.188Z,68.64
2024-01-20T07:23:44.665Z,68.33
2024-01-20T07:26:15.297Z,68.62
2024-01-20T07:28:45.110Z,68.23
2024-01-20T07:31:15.531Z,68.43
2024-01-20T07:33:45.210Z,68.38
2024-01-20T07:36:16.024Z,68.15
2024-01-20T07:38:45.481Z,68.17
2024-01-20T07:41:16.109Z,68.25
2024-01-20T07:43:45.522Z,67.92
2024-01-20T07:46:16.123Z,67.84
2024-01-20T07:48:45.886Z,67.73
2024-01-20T07:51:16.606Z,67.21
2024-01-20T07:53:46.244Z,67.36
2024-01-20T07:56:17.847Z,67.20
2024-01-20T07:58:47.199Z,66.69
2024-01-20T08:01:18.967Z,66.88
2024-01-20T08:03:48.529Z,66.42
2024-01-20T08:06:19.443Z,66.16
2024-01-20T08:08:49.578Z,65.82
2024-01-20T08:11:22.359Z,65.14
2024-01-20T08:13:52.571Z,65.25
2024-01-20T08:16:23.311Z,64.83
2024-01-20T08:18:53.254Z,64.43
2024-01-20T08:21:24.532Z,63.90
2024-01-20T08:23:54.223Z,63.92
2024-01-20T08:26:25.227Z,63.85
2024-01-20T08:28:54.610Z,63.31
2024-01-20T08:31:25.609Z,63.31
2024-01-20T08:33:55.889Z,63.42
2024-01-20T08:36:26.750Z,63.09
2024-01-20T08:38:56.165Z,63.05
2024-01-20T08:41:27.062Z,63.22
2024-01-20T08:43:56.757Z,63.03
2024-01-20T08:46:27.384Z,63.19
2024-01-20T08:48:56.817Z,63.36
2024-01-20T08:51:27.549Z,63.19
2024-01-20T08:53:57.288Z,62.66
2024-01-20T08:56:28.174Z,62.70
2024-01-20T08:58:57.586Z,62.58
2024-01-20T09:01:28.239Z,62.25
2024-01-20T09:03:58.264Z,62.18
2024-01-20T09:06:29.186Z,61.69
2024-01-20T09:08:58.705Z,61.96
2024-01-20T09:11:29.400Z,61.54
2024-01-20T09:13:59.003Z,61.48
2024-01-20T09:16:29.849Z,61.61
2024-01-20T09:18:59.888Z,61.28
2024-01-20T09:21:30.622Z,60.97
2024-01-20T09:24:02.144Z,60.67
2024-01-20T09:26:33.374Z,60.63
2024-01-20T09:29:02.785Z,60.39
2024-01-20T09:31:33.784Z,60.13
2024-01-20T09:34:03.596Z,59.45
2024-01-20T09:36:34.698Z,59.54
2024-01-20T09:39:04.667Z,59.29
2024-01-20T09:41:35.347Z,59.45
2024-01-20T09:44:05.421Z,58.53
2024-01-20T09:46:36.262Z,58.29
2024-01-20T09:49:05.778Z,57.90
2024-01-20T09:51:39.214Z,58.13
2024-01-20T09:54:08.686Z,57.77
2024-01-20T09:56:39.301Z,57.66
2024-01-20T09:59:08.899Z,57.61
2024-01-20T10:01:39.887Z,57.58
2024-01-20T10:04:10.269Z,57.82
2024-01-20T10:06:41.037Z,57.41
2024-01-20T10:09:10.519Z,57.33
2024-01-20T10:11:41.127Z,57.69
2024-01-20T10:14:10.425Z,57.72
2024-01-20T10:16:41.241Z,57.82
2024-01-20T10:19:10.666Z,57.79
2024-01-20T10:21:44.509Z,57.47
2024-01-20T10:24:14.089Z,57.88
2024-01-20T10:26:45.317Z,57.77
2024-01-20T10:29:14.626Z,56.86
2024-01-20T10:31:45.254Z,56.72
2024-01-20T10:34:14.666Z,56.03
2024-01-20T10:36:46.083Z,55.96
2024-01-20T10:39:18.247Z,56.06
2024-01-20T10:41:50.018Z,55.91
2024-01-20T10:44:19.345Z,56.13
2024-01-20T10:46:52.311Z,55.44
2024-01-20T10:49:22.119Z,55.57
2024-01-20T10:51:52.987Z,55.54
2024-01-20T10:54:22.613Z,55.41
2024-01-20T10:56:53.224Z,54.87
2024-01-20T10:59:24.068Z,54.81
2024-01-20T11:01:54.692Z,54.85
2024-01-20T11:04:24.256Z,54.67
2024-01-20T11:06:55.695Z,54.84
2024-01-20T11:09:25.714Z,54.59
2024-01-20T11:12:03.908Z,54.31
2024-01-20T11:14:34.824Z,54.83
2024-01-20T11:17:13.951Z,54.58
2024-01-20T11:19:44.753Z,55.02
2024-01-20T11:22:49.641Z,55.21
2024-01-20T11:25:21.067Z,54.18
2024-01-20T11:27:51.268Z,54.40
2024-01-20T11:30:32.107Z,54.27
2024-01-20T11:33:03.334Z,54.51
2024-01-20T11:35:32.914Z,54.54
2024-01-20T11:38:03.746Z,54.50
2024-01-20T11:40:33.048Z,54.22
2024-01-20T11:43:07.797Z,54.40
2024-01-20T11:45:40.541Z,54.06
2024-01-20T11:48:14.026Z,53.70
2024-01-20T11:50:46.129Z,53.90
2024-01-20T11:53:15.921Z,53.90
2024-01-20T11:56:01.583Z,54.19
2024-01-20T11:58:32.348Z,54.24
2024-01-20T12:01:03.166Z,54.64
2024-01-20T12:03:34.013Z,54.47
2024-01-20T12:06:08.865Z,54.51
2024-01-20T12:08:46.723Z,54.37
2024-01-20T12:11:21.207Z,54.32
2024-01-20T12:13:50.997Z,54.63
2024-01-20T12:16:21.611Z,54.96
2024-01-20T12:18:51.147Z,54.88
2024-01-20T12:21:22.206Z,55.23
2024-01-20T12:23:53.724Z,54.96
2024-01-20T12:26:24.819Z,55.08
2024-01-20T12:28:54.550Z,55.26
2024-01-20T12:31:27.447Z,54.97
2024-01-20T12:33:56.890Z,54.99
2024-01-20T12:36:28.646Z,55.37
2024-01-20T12:38:58.196Z,55.26
2024-01-20T12:41:28.844Z,55.69
2024-01-20T12:43:58.139Z,56.04
2024-01-20T12:46:28.768Z,55.63
2024-01-20T12:48:58.134Z,55.64
2024-01-20T12:51:28.894Z,55.71
2024-01-20T12:53:58.545Z,55.47
2024-01-20T12:56:29.246Z,55.38
2024-01-20T12:58:58.664Z,55.33
2024-01-20T13:01:30.150Z,54.63
2024-01-20T13:03:59.697Z,55.02
2024-01-20T13:06:31.974Z,54.93
2024-01-20T13:09:01.688Z,54.65
2024-01-20T13:11:32.318Z,54.56
2024-01-20T13:14:02.159Z,54.48
2024-01-20T13:16:32.860Z,54.66
2024-01-20T13:19:02.821Z,54.73
2024-01-20T13:21:33.552Z,54.72
2024-01-20T13:24:03.285Z,55.05
2024-01-20T13:26:34.142Z,55.33
2024-01-20T13:29:03.546Z,55.40
2024-01-20T13:31:35.960Z,55.33
2024-01-20T13:34:05.385Z,55.44
2024-01-20T13:36:36.408Z,55.24
2024-01-20T13:39:06.564Z,55.23
2024-01-20T13:41:37.429Z,55.17
2024-01-20T13:44:06.818Z,55.22
2024-01-20T13:46:37.442Z,55.29
2024-01-20T13:49:08.393Z,55.54
2024-01-20T13:51:40.083Z,55.67
2024-01-20T13:54:09.731Z,55.82
2024-01-20T13:56:40.602Z,56.04
2024-01-20T13:59:10.704Z,55.47
2024-01-20T14:01:43.346Z,55.11
2024-01-20T14:04:13.042Z,55.57
2024-01-20T14:06:43.822Z,55.65
2024-01-20T14:09:13.368Z,55.69
2024-01-20T14:11:43.959Z,56.06
2024-01-20T14:14:13.227Z,56.16
2024-01-20T14:16:57.101Z,56.41
2024-01-20T14:19:30.955Z,56.27
2024-01-20T14:22:00.934Z,56.05
2024-01-20T14:24:31.602Z,56.12
2024-01-20T14:27:01.064Z,56.28
2024-01-20T14:29:31.707Z,56.21
2024-01-20T14:32:04.251Z,56.53
2024-01-20T14:34:35.116Z,56.70
2024-01-20T14:37:08.013Z,56.91
2024-01-20T14:39:39.465Z,57.13
2024-01-20T14:42:09.372Z,57.34
2024-01-20T14:44:39.979Z,57.33
2024-01-20T14:47:10.541Z,57.45
2024-01-20T14:49:41.285Z,57.75
2024-01-20T14:52:10.750Z,57.66
2024-01-20T14:54:41.431Z,57.69
2024-01-20T14:57:10.841Z,57.78
2024-01-20T14:59:41.414Z,58.20
2024-01-20T15:02:11.123Z,58.22
2024-01-20T15:04:41.713Z,58.47
2024-01-20T15:07:11.231Z,58.88
2024-01-20T15:09:42.538Z,59.04
2024-01-20T15:12:12.245Z,59.26
2024-01-20T15:14:45.407Z,59.35
2024-01-20T15:17:14.913Z,59.65
2024-01-20T15:19:45.590Z,59.90
2024-01-20T15:22:15.038Z,60.25
2024-01-20T15:24:46.200Z,60.17
2024-01-20T15:27:15.609Z,60.20
2024-01-20T15:29:46.331Z,60.27
2024-01-20T15:32:15.623Z,60.50
2024-01-20T15:34:46.438Z,60.61
2024-01-20T15:37:15.861Z,60.60
2024-01-20T15:39:46.661Z,60.69
2024-01-20T15:42:16.829Z,61.06
2024-01-20T15:44:47.962Z,61.51
2024-01-20T15:47:17.251Z,61.23
2024-01-20T15:49:48.537Z,61.62
2024-01-20T15:52:18.105Z,61.73
2024-01-20T15:54:48.884Z,62.15
2024-01-20T15:57:18.479Z,62.33
2024-01-20T15:59:49.177Z,62.15
2024-01-20T16:02:18.884Z,62.39
2024-01-20T16:04:49.783Z,62.58
2024-01-20T16:07:19.442Z,62.58
2024-01-20T16:09:50.308Z,62.86
2024-01-20T16:12:19.677Z,62.82
2024-01-20T16:14:50.826Z,63.12
2024-01-20T16:17:20.217Z,63.14
2024-01-20T16:19:51.062Z,63.14
2024-01-20T16:22:20.350Z,63.17
2024-01-20T16:24:51.530Z,63.13
2024-01-20T16:27:21.464Z,63.16
2024-01-20T16:29:52.150Z,63.17
2024-01-20T16:32:21.509Z,62.97
2024-01-20T16:34:52.253Z,63.23
2024-01-20T16:37:21.772Z,63.39
2024-01-20T16:39:53.256Z,63.38
2024-01-20T16:42:24.903Z,63.37
2024-01-20T16:44:57.248Z,63.67
2024-01-20T16:47:27.047Z,63.64
2024-01-20T16:49:57.924Z,63.88
2024-01-20T16:52:27.195Z,63.78
2024-01-20T16:54:57.733Z,63.73
2024-01-20T16:57:44.596Z,63.66
2024-01-20T17:00:14.793Z,63.83
2024-01-20T17:02:45.400Z,63.88
2024-01-20T17:05:15.632Z,63.93
2024-01-20T17:07:46.756Z,63.96
2024-01-20T17:10:16.370Z,63.60
2024-01-20T17:12:47.009Z,64.05
2024-01-20T17:15:16.826Z,63.95
2024-01-20T17:17:47.659Z,64.10
2024-01-20T17:20:17.455Z,64.31
2024-01-20T17:22:48.089Z,63.79
2024-01-20T17:25:17.485Z,64.30
2024-01-20T17:27:51.394Z,64.29
2024-01-20T17:30:20.768Z,64.53
2024-01-20T17:32:51.675Z,64.50
2024-01-20T17:35:21.242Z,64.52
2024-01-20T17:37:51.777Z,64.26
2024-01-20T17:40:21.888Z,64.32
2024-01-20T17:42:52.523Z,64.45
2024-01-20T17:45:22.046Z,64.35
2024-01-20T17:47:53.619Z,64.69
2024-01-20T17:50:25.460Z,64.55
2024-01-20T17:52:56.235Z,64.53
2024-01-20T17:55:27.612Z,64.53
2024-01-20T17:58:00.232Z,64.65
2024-01-20T18:00:30.124Z,64.72
2024-01-20T18:03:00.846Z,64.47
2024-01-20T18:05:30.510Z,64.67
2024-01-20T18:08:01.396Z,64.39
2024-01-20T18:10:30.899Z,64.66
2024-01-20T18:13:06.835Z,64.69
2024-01-20T18:15:37.375Z,64.90
2024-01-20T18:18:07.554Z,64.95
2024-01-20T18:20:38.326Z,64.98
2024-01-20T18:23:07.766Z,65.07
2024-01-20T18:25:38.461Z,65.12
2024-01-20T18:28:07.880Z,65.22
2024-01-20T18:30:39.356Z,65.14
2024-01-20T18:33:08.959Z,65.19
2024-01-20T18:35:39.860Z,65.05
2024-01-20T18:38:09.265Z,65.24
2024-01-20T18:40:40.502Z,65.43
2024-01-20T18:43:09.906Z,65.16
2024-01-20T18:45:40.596Z,65.45
2024-01-20T18:48:10.185Z,65.32
2024-01-20T18:50:41.178Z,65.27
2024-01-20T18:53:11.829Z,65.63
2024-01-20T18:55:42.656Z,65.61
2024-01-20T18:58:15.037Z,65.85
2024-01-20T19:00:45.914Z,65.80
2024-01-20T19:03:15.428Z,65.56
2024-01-20T19:05:46.191Z,65.62
2024-01-20T19:08:15.494Z,65.73
2024-01-20T19:10:46.138Z,65.78
2024-01-20T19:13:16.032Z,65.88
2024-01-20T19:15:49.134Z,65.66
2024-01-20T19:18:19.133Z,66.08
2024-01-20T19:20:50.101Z,66.11
2024-01-20T19:23:19.485Z,66.11
2024-01-20T19:25:50.115Z,65.83
2024-01-20T19:28:19.834Z,65.71
2024-01-20T19:30:50.528Z,65.84
2024-01-20T19:33:20.392Z,65.72
2024-01-20T19:35:51.719Z,66.04
2024-01-20T19:38:21.026Z,65.88
2024-01-20T19:40:51.658Z,66.22
2024-01-20T19:43:21.269Z,66.19
2024-01-20T19:45:52.097Z,66.22
2024-01-20T19:48:21.564Z,66.26
2024-01-20T19:50:53.162Z,66.54
2024-01-20T19:53:22.456Z,66.58
2024-01-20T19:55:53.720Z,66.58
2024-01-20T19:58:23.209Z,66.59
2024-01-20T20:00:53.981Z,66.53
2024-01-20T20:03:23.850Z,66.44
2024-01-20T20:05:54.524Z,66.49
2024-01-20T20:08:24.392Z,66.76
2024-01-20T20:10:55.430Z,66.73
2024-01-20T20:13:27.859Z,66.64
2024-01-20T20:16:00.167Z,66.75
2024-01-20T20:18:31.437Z,66.79
2024-01-20T20:21:02.203Z,67.05
2024-01-20T20:23:31.767Z,67.15
2024-01-20T20:26:03.194Z,67.07
2024-01-20T20:28:32.717Z,67.19
2024-01-20T20:31:09.861Z,67.21
2024-01-20T20:33:42.108Z,67.08
2024-01-20T20:36:11.516Z,66.92
2024-01-20T20:38:42.101Z,67.02
2024-01-20T20:41:11.515Z,66.78
2024-01-20T20:43:42.248Z,67.03
2024-01-20T20:46:11.644Z,66.95
2024-01-20T20:48:42.302Z,66.81
2024-01-20T20:51:12.223Z,66.68
2024-01-20T20:53:43.024Z,66.52
2024-01-20T20:56:13.752Z,66.64
2024-01-20T20:58:44.376Z,66.45
2024-01-20T21:01:14.109Z,66.46
2024-01-20T21:03:46.366Z,66.15
2024-01-20T21:06:16.377Z,66.63
2024-01-20T21:08:46.919Z,66.45
2024-01-20T21:11:16.321Z,66.23
2024-01-20T21:13:47.241Z,66.40
2024-01-20T21:16:17.161Z,66.54
2024-01-20T21:18:47.674Z,66.56
2024-01-20T21:21:17.259Z,66.37
2024-01-20T21:23:49.605Z,66.45
2024-01-20T21:26:24.598Z,66.51
2024-01-20T21:28:55.341Z,66.77
2024-01-20T21:31:24.726Z,66.33
2024-01-20T21:33:56.199Z,66.50
2024-01-20T21:36:26.249Z,66.49
2024-01-20T21:38:57.862Z,66.62
2024-01-20T21:41:27.907Z,66.26
2024-01-20T21:44:01.880Z,66.41
2024-01-20T21:46:31.482Z,66.66
2024-01-20T21:49:02.212Z,66.64
2024-01-20T21:51:31.672Z,66.79
2024-01-20T21:54:02.354Z,66.70
2024-01-20T21:56:31.967Z,66.96
2024-01-20T21:59:02.493Z,66.74
2024-01-20T22:01:38.304Z,66.67
2024-01-20T22:04:10.148Z,66.41
2024-01-20T22:06:39.988Z,66.48
2024-01-20T22:09:10.765Z,66.53
2024-01-20T22:11:40.353Z,66.78
2024-01-20T22:14:10.860Z,66.94
2024-01-20T22:16:40.285Z,66.97
2024-01-20T22:19:11.014Z,67.18
2024-01-20T22:21:42.470Z,67.21
2024-01-20T22:24:13.398Z,67.19
2024-01-20T22:26:42.820Z,67.20
2024-01-20T22:29:19.533Z,67.14
2024-01-20T22:32:00.354Z,67.62
2024-01-20T22:34:32.798Z,67.30
2024-01-20T22:37:04.374Z,67.31
2024-01-20T22:39:33.721Z,67.16
2024-01-20T22:42:04.414Z,67.33
2024-01-20T22:44:33.808Z,67.44
2024-01-20T22:47:04.745Z,67.52
2024-01-20T22:49:34.812Z,67.06
2024-01-20T22:52:06.336Z,67.49
2024-01-20T22:54:35.821Z,67.31
2024-01-20T22:57:07.821Z,67.26
2024-01-20T22:59:37.246Z,67.22
2024-01-20T23:02:07.916Z,67.43
2024-01-20T23:04:37.359Z,67.35
2024-01-20T23:07:08.050Z,67.24
2024-01-20T23:09:37.383Z,67.26
2024-01-20T23:12:08.205Z,67.18
2024-01-20T23:14:38.914Z,67.32
2024-01-20T23:17:09.563Z,67.33
2024-01-20T23:19:39.178Z,67.15
2024-01-20T23:22:09.807Z,67.23
2024-01-20T23:24:39.189Z,67.03
2024-01-20T23:27:10.495Z,67.29
2024-01-20T23:29:40.101Z,67.31
2024-01-20T23:32:10.875Z,67.05
2024-01-20T23:34:41.212Z,67.28
2024-01-20T23:37:13.884Z,67.38
2024-01-20T23:39:43.342Z,67.50
2024-01-20T23:42:14.159Z,67.40
2024-01-20T23:44:43.748Z,67.50
2024-01-20T23:47:14.422Z,67.59
2024-01-20T23:49:43.734Z,67.74
2024-01-20T23:52:14.597Z,67.92
2024-01-20T23:54:44.178Z,67.64
2024-01-20T23:57:15.287Z,67.85
2024-01-20T23:59:48.143Z,67.85
